Time;durP1;ratioP1;P1;durP2;ratioP2;P2;SDS_P1;SDS_P2;PMS_P1;PMS_P2;Temp;Humidity;BMP_temperature;BMP_pressure;BME280_temperature;BME280_humidity;BME280_pressure;Samples;Min_cycle;Max_cycle;Signal;HPM_P1;HPM_P2
2021/08/17 00:02:24;;;;;;;8.07;4.37;;;;;;;;;;143734;585;46011;-86
2021/08/17 00:04:52;;;;;;;8.07;4.10;;;;;;;;;;143726;676;47018;-87
2021/08/17 00:07:19;;;;;;;8.88;4.03;;;;;;;;;;143728;601;46023;-89
2021/08/17 00:09:47;;;;;;;5.03;3.87;;;;;;;;;;143726;584;46019;-88
2021/08/17 00:12:14;;;;;;;6.22;4.15;;;;;;;;;;143727;601;46020;-89
2021/08/17 00:14:41;;;;;;;7.37;3.95;;;;;;;;;;143724;834;47020;-88
2021/08/17 00:17:11;;;;;;;11.68;4.25;;;;;;;;;;143729;596;46023;-87
2021/08/17 00:19:40;;;;;;;6.22;3.80;;;;;;;;;;143726;584;46018;-90
2021/08/17 00:22:09;;;;;;;5.47;4.03;;;;;;;;;;143730;836;46020;-89
2021/08/17 00:24:36;;;;;;;6.15;4.20;;;;;;;;;;143726;884;47021;-91
2021/08/17 00:27:04;;;;;;;6.22;3.50;;;;;;;;;;143728;673;46010;-88
2021/08/17 00:29:31;;;;;;;7.32;4.07;;;;;;;;;;143728;564;46018;-90
2021/08/17 00:31:58;;;;;;;10.23;4.85;;;;;;;;;;143729;600;46023;-90
2021/08/17 00:34:25;;;;;;;9.65;3.75;;;;;;;;;;143718;839;47020;-89
2021/08/17 00:36:52;;;;;;;5.90;3.42;;;;;;;;;;143729;590;46022;-91
2021/08/17 00:39:19;;;;;;;5.28;3.70;;;;;;;;;;143725;601;47019;-88
2021/08/17 00:41:53;;;;;;;6.50;3.72;;;;;;;;;;143730;609;46010;-84
2021/08/17 00:44:28;;;;;;;5.32;3.58;;;;;;;;;;143723;599;47020;-88
2021/08/17 00:46:58;;;;;;;5.85;4.03;;;;;;;;;;143729;639;46010;-87
2021/08/17 00:49:25;;;;;;;6.87;4.15;;;;;;;;;;143729;587;46012;-89
2021/08/17 00:51:58;;;;;;;6.78;4.20;;;;;;;;;;143728;598;46010;-87
2021/08/17 00:54:25;;;;;;;6.22;4.20;;;;;;;;;;143725;585;47020;-88
2021/08/17 00:57:01;;;;;;;8.00;3.65;;;;;;;;;;143723;600;46022;-88
2021/08/17 00:59:33;;;;;;;3.75;3.10;;;;;;;;;;143727;626;46013;-87
2021/08/17 01:02:03;;;;;;;11.27;3.75;;;;;;;;;;143724;605;47023;-88
2021/08/17 01:04:31;;;;;;;9.65;4.50;;;;;;;;;;143726;611;47020;-88
2021/08/17 01:06:58;;;;;;;6.15;3.87;;;;;;;;;;143726;564;46920;-89
2021/08/17 01:09:26;;;;;;;3.90;3.33;;;;;;;;;;143721;601;47018;-87
2021/08/17 01:11:53;;;;;;;4.68;3.20;;;;;;;;;;143728;577;46020;-87
2021/08/17 01:14:21;;;;;;;8.70;3.95;;;;;;;;;;143728;624;46018;-89
2021/08/17 01:16:50;;;;;;;11.25;3.75;;;;;;;;;;143729;587;46011;-88
2021/08/17 01:19:20;;;;;;;8.43;3.53;;;;;;;;;;143726;592;46018;-87
2021/08/17 01:21:47;;;;;;;6.97;4.40;;;;;;;;;;143728;624;46010;-90
2021/08/17 01:24:16;;;;;;;4.90;3.62;;;;;;;;;;143725;594;47019;-89
2021/08/17 01:26:44;;;;;;;10.57;3.83;;;;;;;;;;143726;581;46010;-90
2021/08/17 01:29:12;;;;;;;7.30;3.50;;;;;;;;;;143728;590;46018;-90
2021/08/17 01:31:40;;;;;;;4.75;3.40;;;;;;;;;;143730;636;46010;-88
2021/08/17 01:34:06;;;;;;;5.37;3.28;;;;;;;;;;143725;608;47020;-87
2021/08/17 01:36:33;;;;;;;6.50;3.55;;;;;;;;;;143726;570;46010;-90
2021/08/17 01:39:00;;;;;;;10.20;3.90;;;;;;;;;;143729;572;46012;-89
2021/08/17 01:41:26;;;;;;;6.75;3.33;;;;;;;;;;143727;575;46019;-88
2021/08/17 01:43:54;;;;;;;4.25;3.30;;;;;;;;;;143726;569;47020;-88
2021/08/17 01:46:21;;;;;;;6.75;3.50;;;;;;;;;;143729;574;46023;-88
2021/08/17 01:48:48;;;;;;;3.70;2.95;;;;;;;;;;143724;586;47018;-89
2021/08/17 01:51:15;;;;;;;5.53;3.20;;;;;;;;;;143728;580;46010;-89
2021/08/17 01:53:42;;;;;;;6.72;4.50;;;;;;;;;;143725;593;47020;-89
2021/08/17 01:56:15;;;;;;;6.22;3.53;;;;;;;;;;143727;577;46920;-88
2021/08/17 01:58:52;;;;;;;9.75;3.55;;;;;;;;;;143727;569;46018;-90
2021/08/17 02:01:35;;;;;;;10.30;3.50;;;;;;;;;;143733;621;45023;-87
2021/08/17 02:04:03;;;;;;;4.20;3.35;;;;;;;;;;143732;580;45020;-89
2021/08/17 02:06:30;;;;;;;10.13;3.20;;;;;;;;;;143727;608;46011;-88
2021/08/17 02:08:57;;;;;;;6.85;3.70;;;;;;;;;;143725;588;47019;-89
2021/08/17 02:11:24;;;;;;;4.53;3.62;;;;;;;;;;143728;616;46010;-88
2021/08/17 02:13:50;;;;;;;7.68;4.03;;;;;;;;;;143723;612;47020;-88
2021/08/17 02:16:17;;;;;;;5.87;3.30;;;;;;;;;;143725;581;46023;-88
2021/08/17 02:18:43;;;;;;;5.72;3.80;;;;;;;;;;143723;630;47018;-88
2021/08/17 02:21:10;;;;;;;4.15;3.62;;;;;;;;;;143729;597;46020;-89
2021/08/17 02:23:38;;;;;;;6.37;4.53;;;;;;;;;;143724;589;47019;-88
2021/08/17 02:26:05;;;;;;;5.37;3.47;;;;;;;;;;143727;607;46010;-87
2021/08/17 02:28:32;;;;;;;12.25;4.20;;;;;;;;;;143724;582;47018;-88
2021/08/17 02:30:59;;;;;;;4.97;3.78;;;;;;;;;;143729;613;46011;-89
2021/08/17 02:33:26;;;;;;;6.72;4.22;;;;;;;;;;143727;663;47020;-88
2021/08/17 02:35:52;;;;;;;5.90;3.53;;;;;;;;;;143727;566;46010;-88
2021/08/17 02:38:19;;;;;;;8.10;3.72;;;;;;;;;;143722;586;47019;-86
2021/08/17 02:40:46;;;;;;;8.55;3.75;;;;;;;;;;143730;569;46010;-86
2021/08/17 02:43:13;;;;;;;6.35;4.28;;;;;;;;;;143726;596;46044;-89
2021/08/17 02:45:39;;;;;;;6.80;4.15;;;;;;;;;;143726;566;46011;-88
2021/08/17 02:48:07;;;;;;;7.20;3.55;;;;;;;;;;143728;586;46016;-88
2021/08/17 02:50:33;;;;;;;6.40;3.97;;;;;;;;;;143731;563;46010;-88
2021/08/17 02:53:00;;;;;;;5.95;3.45;;;;;;;;;;143721;569;47020;-92
2021/08/17 02:55:27;;;;;;;5.62;3.30;;;;;;;;;;143727;569;46010;-88
2021/08/17 02:57:56;;;;;;;6.80;3.78;;;;;;;;;;143725;595;47018;-88
2021/08/17 03:00:23;;;;;;;5.82;3.83;;;;;;;;;;143724;606;47011;-90
2021/08/17 03:02:50;;;;;;;8.23;3.80;;;;;;;;;;143721;596;47018;-89
2021/08/17 03:05:17;;;;;;;8.80;4.05;;;;;;;;;;143727;569;46010;-89
2021/08/17 03:08:02;;;;;;;7.68;3.53;;;;;;;;;;143725;564;47016;-89
2021/08/17 03:10:30;;;;;;;11.95;4.12;;;;;;;;;;143728;633;46010;-88
2021/08/17 03:12:56;;;;;;;6.62;3.87;;;;;;;;;;143725;640;46020;-88
2021/08/17 03:15:23;;;;;;;5.85;3.83;;;;;;;;;;143724;618;46011;-89
2021/08/17 03:17:51;;;;;;;7.12;3.55;;;;;;;;;;143722;606;47018;-87
2021/08/17 03:20:19;;;;;;;12.68;4.40;;;;;;;;;;143727;582;46010;-89
2021/08/17 03:22:45;;;;;;;6.85;4.35;;;;;;;;;;143723;624;47019;-87
2021/08/17 03:25:13;;;;;;;8.02;3.50;;;;;;;;;;143722;570;46022;-87
2021/08/17 03:27:41;;;;;;;6.28;3.70;;;;;;;;;;143723;571;46018;-88
2021/08/17 03:30:12;;;;;;;5.25;3.58;;;;;;;;;;143728;591;46011;-87
2021/08/17 03:32:40;;;;;;;5.18;3.47;;;;;;;;;;143721;577;47020;-88
2021/08/17 03:35:08;;;;;;;7.35;3.60;;;;;;;;;;143726;594;46010;-89
2021/08/17 03:37:37;;;;;;;5.35;3.50;;;;;;;;;;143722;625;46019;-90
2021/08/17 03:40:06;;;;;;;17.80;3.55;;;;;;;;;;143726;614;47010;-89
2021/08/17 03:42:33;;;;;;;9.77;4.75;;;;;;;;;;143725;588;47020;-88
2021/08/17 03:44:59;;;;;;;5.07;3.70;;;;;;;;;;143724;575;46010;-87
2021/08/17 03:47:26;;;;;;;5.62;3.40;;;;;;;;;;143723;578;46018;-88
2021/08/17 03:49:53;;;;;;;9.10;4.47;;;;;;;;;;143726;587;46010;-88
2021/08/17 03:52:20;;;;;;;4.85;4.30;;;;;;;;;;143723;585;46047;-90
2021/08/17 03:54:47;;;;;;;6.93;4.43;;;;;;;;;;143725;643;46010;-89
2021/08/17 03:57:14;;;;;;;11.40;3.80;;;;;;;;;;143724;580;47018;-89
2021/08/17 03:59:40;;;;;;;5.87;3.87;;;;;;;;;;143726;580;46021;-89
2021/08/17 04:02:07;;;;;;;12.77;4.40;;;;;;;;;;143723;640;46047;-88
2021/08/17 04:04:35;;;;;;;7.18;3.92;;;;;;;;;;143725;581;46921;-88
2021/08/17 04:07:02;;;;;;;15.38;4.12;;;;;;;;;;143722;579;47019;-88
2021/08/17 04:09:28;;;;;;;11.32;4.03;;;;;;;;;;143727;618;46010;-88
2021/08/17 04:11:55;;;;;;;9.77;4.57;;;;;;;;;;143721;565;47020;-88
2021/08/17 04:14:22;;;;;;;8.68;4.12;;;;;;;;;;143724;592;46011;-89
2021/08/17 04:16:49;;;;;;;10.43;4.55;;;;;;;;;;143724;602;46018;-87
2021/08/17 04:19:15;;;;;;;11.15;4.87;;;;;;;;;;143728;574;46010;-88
2021/08/17 04:21:42;;;;;;;15.38;4.60;;;;;;;;;;143721;642;48019;-89
2021/08/17 04:24:09;;;;;;;11.43;5.25;;;;;;;;;;143723;569;46010;-89
2021/08/17 04:26:36;;;;;;;10.82;3.97;;;;;;;;;;143726;642;46012;-88
2021/08/17 04:29:02;;;;;;;8.80;4.50;;;;;;;;;;143725;583;46011;-89
2021/08/17 04:31:30;;;;;;;15.20;4.97;;;;;;;;;;143725;575;46018;-88
2021/08/17 04:33:56;;;;;;;13.73;3.97;;;;;;;;;;143725;607;46010;-87
2021/08/17 04:36:23;;;;;;;11.05;5.32;;;;;;;;;;143724;564;46039;-87
2021/08/17 04:38:49;;;;;;;12.23;3.83;;;;;;;;;;143726;666;46010;-89
2021/08/17 04:41:16;;;;;;;11.00;4.47;;;;;;;;;;143716;597;47020;-88
2021/08/17 04:43:43;;;;;;;12.45;5.12;;;;;;;;;;143724;594;46023;-89
2021/08/17 04:46:10;;;;;;;10.57;4.28;;;;;;;;;;143723;573;47018;-87
2021/08/17 04:48:36;;;;;;;11.12;3.62;;;;;;;;;;143726;583;46010;-87
2021/08/17 04:51:03;;;;;;;7.20;3.70;;;;;;;;;;143726;581;46020;-89
2021/08/17 04:53:30;;;;;;;12.68;3.92;;;;;;;;;;143724;589;46010;-88
2021/08/17 04:55:57;;;;;;;10.50;4.07;;;;;;;;;;143724;587;46018;-88
2021/08/17 04:58:23;;;;;;;14.05;4.30;;;;;;;;;;143727;576;46010;-88
2021/08/17 05:00:50;;;;;;;12.98;4.80;;;;;;;;;;143723;606;47021;-89
2021/08/17 05:03:18;;;;;;;16.58;10.45;;;;;;;;;;143725;569;46010;-89
2021/08/17 05:05:45;;;;;;;10.68;7.25;;;;;;;;;;143717;619;47019;-85
2021/08/17 05:08:12;;;;;;;9.40;5.82;;;;;;;;;;143726;633;47010;-89
2021/08/17 05:10:39;;;;;;;11.05;5.15;;;;;;;;;;143722;623;47018;-89
2021/08/17 05:13:06;;;;;;;17.20;5.32;;;;;;;;;;143726;581;46011;-88
2021/08/17 05:15:33;;;;;;;9.93;6.12;;;;;;;;;;143722;588;47018;-89
2021/08/17 05:18:00;;;;;;;14.38;5.65;;;;;;;;;;143727;572;46022;-87
2021/08/17 05:20:27;;;;;;;23.02;5.90;;;;;;;;;;143723;583;46020;-85
2021/08/17 05:22:53;;;;;;;11.18;4.53;;;;;;;;;;143725;626;46010;-88
2021/08/17 05:25:20;;;;;;;9.13;4.47;;;;;;;;;;143723;593;47018;-89
2021/08/17 05:27:47;;;;;;;9.63;4.53;;;;;;;;;;143726;589;46011;-88
2021/08/17 05:30:14;;;;;;;12.60;3.58;;;;;;;;;;143725;586;46018;-87
2021/08/17 05:32:42;;;;;;;19.17;3.95;;;;;;;;;;143725;565;46022;-87
2021/08/17 05:35:10;;;;;;;7.30;3.87;;;;;;;;;;143724;606;46043;-88
2021/08/17 05:37:37;;;;;;;11.88;4.55;;;;;;;;;;143724;581;47023;-86
2021/08/17 05:40:06;;;;;;;12.85;4.32;;;;;;;;;;143722;630;47020;-89
2021/08/17 05:42:33;;;;;;;6.43;3.40;;;;;;;;;;143724;757;46010;-85
2021/08/17 05:44:59;;;;;;;8.52;3.65;;;;;;;;;;143725;590;46013;-90
2021/08/17 05:47:27;;;;;;;8.82;4.25;;;;;;;;;;143725;564;46010;-89
2021/08/17 05:49:53;;;;;;;9.68;3.85;;;;;;;;;;143723;591;47020;-88
2021/08/17 05:52:20;;;;;;;8.55;3.85;;;;;;;;;;143724;602;46921;-89
2021/08/17 05:54:47;;;;;;;8.95;4.05;;;;;;;;;;143722;584;46018;-88
2021/08/17 05:57:13;;;;;;;10.38;3.83;;;;;;;;;;143727;603;46010;-87
2021/08/17 05:59:40;;;;;;;8.35;3.90;;;;;;;;;;143721;570;47020;-91
2021/08/17 06:02:07;;;;;;;11.73;3.83;;;;;;;;;;143725;570;46010;-89
2021/08/17 06:04:33;;;;;;;8.75;3.20;;;;;;;;;;143725;634;46018;-89
2021/08/17 06:07:00;;;;;;;4.87;3.28;;;;;;;;;;143724;972;47010;-90
2021/08/17 06:09:27;;;;;;;9.00;4.65;;;;;;;;;;143721;591;47018;-88
2021/08/17 06:11:57;;;;;;;6.65;5.30;;;;;;;;;;143726;980;46022;-89
2021/08/17 06:14:24;;;;;;;9.38;3.83;;;;;;;;;;143720;581;47019;-87
2021/08/17 06:16:50;;;;;;;12.35;3.80;;;;;;;;;;143727;570;46020;-88
2021/08/17 06:19:17;;;;;;;12.65;4.18;;;;;;;;;;143716;590;47018;-87
2021/08/17 06:21:45;;;;;;;10.98;4.28;;;;;;;;;;143725;583;46011;-88
2021/08/17 06:24:12;;;;;;;8.57;4.35;;;;;;;;;;143725;590;46018;-89
2021/08/17 06:26:40;;;;;;;11.20;4.53;;;;;;;;;;143727;588;46022;-89
2021/08/17 06:29:08;;;;;;;12.90;4.60;;;;;;;;;;143725;567;47020;-89
2021/08/17 06:31:35;;;;;;;6.07;4.53;;;;;;;;;;143725;593;46010;-91
2021/08/17 06:34:02;;;;;;;13.07;4.50;;;;;;;;;;143722;569;47018;-90
2021/08/17 06:36:31;;;;;;;6.68;4.35;;;;;;;;;;143725;686;46020;-88
2021/08/17 06:39:00;;;;;;;12.57;4.40;;;;;;;;;;143722;569;47020;-90
2021/08/17 06:41:27;;;;;;;9.65;4.03;;;;;;;;;;143725;584;46010;-88
2021/08/17 06:43:55;;;;;;;9.07;4.30;;;;;;;;;;143722;650;47016;-91
2021/08/17 06:46:33;;;;;;;8.55;3.87;;;;;;;;;;143731;621;45022;-88
2021/08/17 06:49:12;;;;;;;10.45;4.87;;;;;;;;;;143729;573;46018;-89
2021/08/17 06:51:39;;;;;;;10.95;4.22;;;;;;;;;;143729;564;45921;-88
2021/08/17 06:54:07;;;;;;;9.23;4.55;;;;;;;;;;143724;631;46018;-90
2021/08/17 06:56:33;;;;;;;10.30;3.90;;;;;;;;;;143727;692;46020;-90
2021/08/17 06:59:00;;;;;;;16.17;4.40;;;;;;;;;;143724;573;47020;-89
2021/08/17 07:01:27;;;;;;;7.50;3.95;;;;;;;;;;143725;597;46010;-88
2021/08/17 07:03:54;;;;;;;12.52;5.35;;;;;;;;;;143722;641;47018;-87
2021/08/17 07:06:20;;;;;;;14.40;3.55;;;;;;;;;;143727;570;46011;-89
2021/08/17 07:08:47;;;;;;;13.15;4.82;;;;;;;;;;143717;589;47018;-88
2021/08/17 07:11:14;;;;;;;6.70;3.62;;;;;;;;;;143725;591;46010;-89
2021/08/17 07:13:40;;;;;;;10.50;4.28;;;;;;;;;;143725;659;46019;-89
2021/08/17 07:16:07;;;;;;;12.10;4.15;;;;;;;;;;143726;632;47022;-89
2021/08/17 07:18:34;;;;;;;11.70;4.45;;;;;;;;;;143724;637;46044;-88
2021/08/17 07:21:01;;;;;;;13.88;4.22;;;;;;;;;;143724;699;46033;-87
2021/08/17 07:23:28;;;;;;;9.63;4.20;;;;;;;;;;143722;591;47018;-89
2021/08/17 07:25:55;;;;;;;19.70;4.35;;;;;;;;;;143726;569;46010;-86
2021/08/17 07:28:21;;;;;;;8.73;3.83;;;;;;;;;;143724;570;47019;-89
2021/08/17 07:30:48;;;;;;;9.82;4.53;;;;;;;;;;143724;576;46010;-89
2021/08/17 07:33:15;;;;;;;12.60;3.90;;;;;;;;;;143722;622;46018;-89
2021/08/17 07:35:42;;;;;;;15.18;3.30;;;;;;;;;;143727;642;46011;-90
2021/08/17 07:38:08;;;;;;;7.43;3.70;;;;;;;;;;143722;566;47020;-90
2021/08/17 07:40:35;;;;;;;14.23;4.28;;;;;;;;;;143725;577;46022;-89
2021/08/17 07:43:02;;;;;;;6.85;2.85;;;;;;;;;;143724;703;46019;-89
2021/08/17 07:45:33;;;;;;;8.07;3.75;;;;;;;;;;143726;583;46010;-88
2021/08/17 07:47:59;;;;;;;11.43;3.40;;;;;;;;;;143725;691;47020;-88
2021/08/17 07:50:26;;;;;;;8.45;2.65;;;;;;;;;;143725;706;46010;-88
2021/08/17 07:52:53;;;;;;;10.35;3.33;;;;;;;;;;143724;601;46018;-93
2021/08/17 07:55:19;;;;;;;9.50;3.55;;;;;;;;;;143725;659;46049;-88
2021/08/17 07:57:46;;;;;;;12.18;3.58;;;;;;;;;;143721;586;47020;-87
2021/08/17 08:00:15;;;;;;;7.30;3.03;;;;;;;;;;143723;691;46023;-88
2021/08/17 08:02:43;;;;;;;11.07;3.12;;;;;;;;;;143724;592;47018;-84
2021/08/17 08:05:14;;;;;;;9.30;3.35;;;;;;;;;;143731;601;45027;-84
2021/08/17 08:08:00;;;;;;;9.18;3.30;;;;;;;;;;143729;591;46021;-83
2021/08/17 08:10:39;;;;;;;5.57;3.03;;;;;;;;;;143729;572;45922;-84
2021/08/17 08:13:28;;;;;;;9.32;3.10;;;;;;;;;;143731;684;45019;-90
2021/08/17 08:16:07;;;;;;;7.95;4.20;;;;;;;;;;143731;698;45022;-84
2021/08/17 08:18:54;;;;;;;5.87;2.90;;;;;;;;;;143730;684;45020;-89
2021/08/17 08:21:55;;;;;;;;;;;;;;;;;;;;;
2021/08/17 08:24:36;;;;;;;8.93;3.17;;;;;;;;;;143728;667;46018;-88
2021/08/17 08:27:14;;;;;;;7.40;2.72;;;;;;;;;;143731;570;45023;-88
2021/08/17 08:29:55;;;;;;;8.27;3.12;;;;;;;;;;143728;600;46010;-83
2021/08/17 08:32:35;;;;;;;8.10;2.90;;;;;;;;;;143730;585;45920;-84
2021/08/17 08:35:22;;;;;;;5.60;2.87;;;;;;;;;;143728;583;45019;-83
2021/08/17 08:37:50;;;;;;;4.18;2.90;;;;;;;;;;143730;564;45023;-91
2021/08/17 08:40:23;;;;;;;5.82;3.28;;;;;;;;;;143728;569;46012;-90
2021/08/17 08:42:52;;;;;;;3.92;3.15;;;;;;;;;;143728;591;46023;-89
2021/08/17 08:45:29;;;;;;;4.75;3.42;;;;;;;;;;143730;576;45018;-92
2021/08/17 08:48:05;;;;;;;7.22;5.07;;;;;;;;;;143729;632;46022;-89
2021/08/17 08:50:34;;;;;;;6.68;3.72;;;;;;;;;;143726;596;46020;-90
2021/08/17 08:53:01;;;;;;;7.35;3.37;;;;;;;;;;143724;575;46022;-90
2021/08/17 08:55:28;;;;;;;66.95;10.20;;;;;;;;;;143727;753;45023;-91
2021/08/17 08:57:56;;;;;;;12.27;3.87;;;;;;;;;;143726;724;47021;-88
2021/08/17 09:00:23;;;;;;;13.95;4.30;;;;;;;;;;143722;565;47020;-87
2021/08/17 09:02:51;;;;;;;8.02;3.20;;;;;;;;;;143723;560;46920;-87
2021/08/17 09:05:21;;;;;;;9.32;2.85;;;;;;;;;;143726;564;46018;-89
2021/08/17 09:07:52;;;;;;;4.57;2.83;;;;;;;;;;143729;655;46010;-91
2021/08/17 09:10:27;;;;;;;7.90;3.20;;;;;;;;;;143723;674;47020;-90
2021/08/17 09:12:59;;;;;;;4.40;2.92;;;;;;;;;;143724;575;46921;-90
2021/08/17 09:15:34;;;;;;;4.37;3.10;;;;;;;;;;143726;608;46012;-91
2021/08/17 09:18:10;;;;;;;7.07;2.67;;;;;;;;;;143729;567;46010;-90
2021/08/17 09:20:45;;;;;;;5.47;3.05;;;;;;;;;;143728;597;46012;-89
2021/08/17 09:23:36;;;;;;;6.32;3.00;;;;;;;;;;143726;583;46010;-89
2021/08/17 09:26:28;;;;;;;3.90;2.58;;;;;;;;;;143723;624;47018;-90
2021/08/17 09:29:00;;;;;;;3.67;2.78;;;;;;;;;;143726;578;47010;-87
2021/08/17 09:31:38;;;;;;;4.60;3.08;;;;;;;;;;143723;564;47020;-90
2021/08/17 09:34:08;;;;;;;6.53;3.33;;;;;;;;;;143725;656;46011;-87
2021/08/17 09:36:42;;;;;;;4.72;3.03;;;;;;;;;;143727;582;46018;-89
2021/08/17 09:39:32;;;;;;;4.37;2.85;;;;;;;;;;143729;577;46010;-88
2021/08/17 09:42:29;;;;;;;5.60;2.80;;;;;;;;;;143719;652;47011;-88
2021/08/17 09:45:27;;;;;;;4.80;2.67;;;;;;;;;;143726;579;46022;-88
2021/08/17 09:47:57;;;;;;;6.00;3.12;;;;;;;;;;143723;711;47018;-90
2021/08/17 09:50:29;;;;;;;6.00;2.55;;;;;;;;;;143727;598;46011;-88
2021/08/17 09:53:18;;;;;;;11.50;2.55;;;;;;;;;;143724;596;47020;-89
2021/08/17 09:55:55;;;;;;;5.55;2.55;;;;;;;;;;143725;684;46010;-88
2021/08/17 09:58:41;;;;;;;4.43;2.90;;;;;;;;;;143726;649;46019;-91
2021/08/17 10:01:10;;;;;;;4.45;2.87;;;;;;;;;;143726;600;46012;-90
2021/08/17 10:03:37;;;;;;;11.70;2.95;;;;;;;;;;143726;743;46020;-86
2021/08/17 10:06:14;;;;;;;6.28;2.62;;;;;;;;;;143724;610;46022;-87
2021/08/17 10:08:42;;;;;;;3.37;2.60;;;;;;;;;;143722;740;47018;-90
2021/08/17 10:11:12;;;;;;;8.02;2.97;;;;;;;;;;143722;580;47022;-86
2021/08/17 10:13:43;;;;;;;5.53;2.75;;;;;;;;;;143723;638;47021;-88
2021/08/17 10:16:11;;;;;;;4.00;2.92;;;;;;;;;;143726;607;46010;-87
2021/08/17 10:18:40;;;;;;;5.43;2.83;;;;;;;;;;143722;631;47019;-87
2021/08/17 10:21:09;;;;;;;3.30;2.70;;;;;;;;;;143728;569;46010;-88
2021/08/17 10:23:49;;;;;;;3.60;2.90;;;;;;;;;;143725;564;47020;-87
2021/08/17 10:26:34;;;;;;;5.45;2.42;;;;;;;;;;143726;588;46048;-87
2021/08/17 10:29:21;;;;;;;6.78;2.62;;;;;;;;;;143724;585;47018;-91
2021/08/17 10:31:55;;;;;;;3.72;2.53;;;;;;;;;;143725;589;47022;-87
2021/08/17 10:34:47;;;;;;;4.40;2.87;;;;;;;;;;143726;585;46020;-89
2021/08/17 10:37:35;;;;;;;9.10;2.60;;;;;;;;;;143725;576;46010;-88
2021/08/17 10:40:48;;;;;;;4.12;2.78;;;;;;;;;;143727;590;46012;-88
2021/08/17 10:43:16;;;;;;;3.80;2.00;;;;;;;;;;143726;586;47023;-88
2021/08/17 10:46:04;;;;;;;3.62;2.30;;;;;;;;;;143722;564;47020;-87
2021/08/17 10:49:44;;;;;;;7.87;2.97;;;;;;;;;;143725;721;46023;-87
2021/08/17 10:52:45;;;;;;;6.10;3.42;;;;;;;;;;143725;569;46018;-87
2021/08/17 10:55:35;;;;;;;4.72;3.10;;;;;;;;;;143728;666;46010;-88
2021/08/17 10:58:06;;;;;;;4.80;2.30;;;;;;;;;;143726;585;46021;-90
2021/08/17 11:00:58;;;;;;;5.28;3.00;;;;;;;;;;143726;705;46010;-88
2021/08/17 11:03:54;;;;;;;6.62;3.03;;;;;;;;;;143723;576;47018;-88
2021/08/17 11:06:40;;;;;;;3.55;2.70;;;;;;;;;;143730;583;46020;-89
2021/08/17 11:09:30;;;;;;;2.95;2.30;;;;;;;;;;143725;575;46022;-88
2021/08/17 11:12:10;;;;;;;4.93;2.45;;;;;;;;;;143727;595;46023;-90
2021/08/17 11:14:42;;;;;;;3.72;2.75;;;;;;;;;;143725;605;47016;-88
2021/08/17 11:17:15;;;;;;;2.97;2.63;;;;;;;;;;143729;694;46010;-90
2021/08/17 11:19:46;;;;;;;3.15;2.40;;;;;;;;;;143730;597;45020;-90
2021/08/17 11:22:24;;;;;;;5.87;3.03;;;;;;;;;;143725;575;47022;-89
2021/08/17 11:24:59;;;;;;;6.35;2.42;;;;;;;;;;143727;564;47012;-88
2021/08/17 11:27:32;;;;;;;3.87;2.72;;;;;;;;;;143729;566;46020;-90
2021/08/17 11:30:03;;;;;;;4.93;2.78;;;;;;;;;;143721;585;47020;-88
2021/08/17 11:32:59;;;;;;;3.62;2.85;;;;;;;;;;143731;613;45919;-87
2021/08/17 11:35:30;;;;;;;3.53;2.58;;;;;;;;;;143731;593;45021;-87
2021/08/17 11:38:01;;;;;;;3.85;2.72;;;;;;;;;;143731;616;46020;-89
2021/08/17 11:40:30;;;;;;;3.58;2.72;;;;;;;;;;143727;600;47020;-87
2021/08/17 11:42:57;;;;;;;6.43;3.03;;;;;;;;;;143728;596;46010;-91
2021/08/17 11:45:27;;;;;;;3.62;2.92;;;;;;;;;;143722;599;47018;-89
2021/08/17 11:48:01;;;;;;;4.78;2.90;;;;;;;;;;143728;569;46044;-88
2021/08/17 11:50:28;;;;;;;6.28;2.95;;;;;;;;;;143725;589;47021;-90
2021/08/17 11:52:57;;;;;;;6.18;3.22;;;;;;;;;;143724;612;47022;-90
2021/08/17 11:55:31;;;;;;;6.70;2.65;;;;;;;;;;143729;628;46013;-88
2021/08/17 11:58:00;;;;;;;6.90;2.75;;;;;;;;;;143729;589;46020;-89
2021/08/17 12:00:33;;;;;;;2.78;2.12;;;;;;;;;;143728;632;47020;-88
2021/08/17 12:03:06;;;;;;;7.68;2.65;;;;;;;;;;143726;578;46011;-87
2021/08/17 12:05:41;;;;;;;8.07;2.70;;;;;;;;;;143723;578;47019;-89
2021/08/17 12:08:14;;;;;;;2.90;2.03;;;;;;;;;;143729;569;46010;-90
2021/08/17 12:10:43;;;;;;;2.65;1.80;;;;;;;;;;143726;598;47020;-88
2021/08/17 12:13:14;;;;;;;2.05;1.70;;;;;;;;;;143729;589;46010;-88
2021/08/17 12:15:59;;;;;;;1.60;1.33;;;;;;;;;;143728;612;46018;-89
2021/08/17 12:18:31;;;;;;;4.65;1.67;;;;;;;;;;143730;587;46010;-89
2021/08/17 12:21:10;;;;;;;2.70;1.80;;;;;;;;;;143727;624;46021;-88
2021/08/17 12:23:48;;;;;;;2.47;1.95;;;;;;;;;;143728;619;46022;-88
2021/08/17 12:26:19;;;;;;;3.10;1.67;;;;;;;;;;143729;646;46019;-88
2021/08/17 12:28:49;;;;;;;5.30;1.80;;;;;;;;;;143729;624;46020;-88
2021/08/17 12:31:38;;;;;;;3.47;2.25;;;;;;;;;;143725;609;47018;-90
2021/08/17 12:34:10;;;;;;;3.30;2.12;;;;;;;;;;143729;569;46010;-89
2021/08/17 12:36:56;;;;;;;3.17;2.40;;;;;;;;;;143725;617;47018;-90
2021/08/17 12:39:38;;;;;;;3.75;2.67;;;;;;;;;;143729;585;46022;-88
2021/08/17 12:42:10;;;;;;;3.62;2.20;;;;;;;;;;143728;580;46021;-90
2021/08/17 12:44:40;;;;;;;;;;;;;;;;;;143729;980;46022;-89
2021/08/17 12:47:14;;;;;;;7.85;2.25;;;;;;;;;;143732;580;46018;-88
2021/08/17 12:49:52;;;;;;;3.45;2.45;;;;;;;;;;143730;565;46020;-88
2021/08/17 12:52:55;;;;;;;3.33;2.60;;;;;;;;;;143728;580;46020;-90
2021/08/17 12:55:27;;;;;;;2.85;2.30;;;;;;;;;;143725;648;47023;-88
2021/08/17 12:57:55;;;;;;;5.07;2.20;;;;;;;;;;143728;592;46018;-88
2021/08/17 13:00:24;;;;;;;3.00;2.10;;;;;;;;;;143727;599;47022;-88
2021/08/17 13:02:51;;;;;;;3.47;2.30;;;;;;;;;;143724;600;47020;-88
2021/08/17 13:05:20;;;;;;;3.62;2.45;;;;;;;;;;143723;599;47023;-90
2021/08/17 13:07:47;;;;;;;5.03;3.05;;;;;;;;;;143729;665;46018;-90
2021/08/17 13:10:17;;;;;;;6.90;2.90;;;;;;;;;;143732;620;46012;-88
2021/08/17 13:12:44;;;;;;;4.55;2.92;;;;;;;;;;143726;623;47021;-89
2021/08/17 13:15:12;;;;;;;4.15;2.95;;;;;;;;;;143728;564;46012;-90
2021/08/17 13:17:39;;;;;;;5.47;3.15;;;;;;;;;;143729;583;46015;-89
2021/08/17 13:20:09;;;;;;;9.05;2.67;;;;;;;;;;143729;608;46012;-88
2021/08/17 13:22:37;;;;;;;4.12;3.05;;;;;;;;;;143726;598;47020;-88
2021/08/17 13:25:05;;;;;;;6.62;3.20;;;;;;;;;;143727;613;46013;-88
2021/08/17 13:27:35;;;;;;;4.05;2.85;;;;;;;;;;143728;578;47018;-89
2021/08/17 13:30:02;;;;;;;5.07;3.37;;;;;;;;;;143728;589;46020;-90
2021/08/17 13:32:28;;;;;;;7.35;3.60;;;;;;;;;;143728;564;46017;-90
2021/08/17 13:34:56;;;;;;;9.35;2.92;;;;;;;;;;143727;596;46022;-90
2021/08/17 13:37:24;;;;;;;3.95;3.03;;;;;;;;;;143724;565;46018;-90
2021/08/17 13:39:52;;;;;;;6.07;3.50;;;;;;;;;;143730;569;46023;-88
2021/08/17 13:42:18;;;;;;;9.65;3.60;;;;;;;;;;143729;565;46014;-90
2021/08/17 13:44:47;;;;;;;7.00;3.70;;;;;;;;;;143728;652;46012;-89
2021/08/17 13:47:14;;;;;;;4.22;2.95;;;;;;;;;;143728;586;46019;-88
2021/08/17 13:49:41;;;;;;;5.97;3.50;;;;;;;;;;143731;577;46010;-89
2021/08/17 13:52:08;;;;;;;4.10;3.20;;;;;;;;;;143725;589;47018;-89
2021/08/17 13:54:34;;;;;;;4.20;3.25;;;;;;;;;;143727;600;46012;-89
2021/08/17 13:57:02;;;;;;;4.10;2.83;;;;;;;;;;143726;595;47018;-89
2021/08/17 13:59:29;;;;;;;12.27;3.55;;;;;;;;;;143729;565;46012;-91
2021/08/17 14:01:56;;;;;;;6.30;4.10;;;;;;;;;;143720;583;47020;-89
2021/08/17 14:04:22;;;;;;;11.57;3.45;;;;;;;;;;143728;623;46919;-89
2021/08/17 14:06:49;;;;;;;7.80;3.53;;;;;;;;;;143729;648;46018;-89
2021/08/17 14:09:16;;;;;;;7.78;4.00;;;;;;;;;;143731;611;46021;-88
2021/08/17 14:11:44;;;;;;;7.15;3.25;;;;;;;;;;143728;582;46019;-91
2021/08/17 14:14:13;;;;;;;6.10;3.20;;;;;;;;;;143728;586;46014;-90
2021/08/17 14:16:41;;;;;;;7.30;3.10;;;;;;;;;;143728;616;45019;-89
2021/08/17 14:19:09;;;;;;;4.07;3.20;;;;;;;;;;143729;583;46023;-90
2021/08/17 14:21:35;;;;;;;4.00;3.10;;;;;;;;;;143728;574;46018;-89
2021/08/17 14:24:02;;;;;;;8.32;2.95;;;;;;;;;;143726;566;46919;-88
2021/08/17 14:26:33;;;;;;;7.12;3.53;;;;;;;;;;143724;580;46018;-88
2021/08/17 14:29:01;;;;;;;5.70;3.20;;;;;;;;;;143727;573;47022;-90
2021/08/17 14:31:30;;;;;;;5.87;3.33;;;;;;;;;;143727;572;47018;-89
2021/08/17 14:33:57;;;;;;;6.75;3.40;;;;;;;;;;143729;581;46012;-91
2021/08/17 14:36:23;;;;;;;3.92;3.10;;;;;;;;;;143727;616;46018;-92
2021/08/17 14:38:51;;;;;;;8.75;3.87;;;;;;;;;;143731;588;46012;-90
2021/08/17 14:41:18;;;;;;;6.80;3.50;;;;;;;;;;143725;580;46021;-90
2021/08/17 14:43:45;;;;;;;5.80;3.83;;;;;;;;;;143722;586;47918;-89
2021/08/17 14:46:16;;;;;;;9.10;4.25;;;;;;;;;;143726;564;47018;-89
2021/08/17 14:48:43;;;;;;;4.30;3.17;;;;;;;;;;143728;604;46023;-87
2021/08/17 14:51:11;;;;;;;5.07;4.03;;;;;;;;;;143719;573;47020;-88
2021/08/17 14:53:38;;;;;;;7.43;3.70;;;;;;;;;;143728;589;46012;-87
2021/08/17 14:56:06;;;;;;;6.00;3.87;;;;;;;;;;143729;654;46019;-90
2021/08/17 14:58:34;;;;;;;6.95;3.80;;;;;;;;;;143730;617;46012;-89
2021/08/17 15:01:01;;;;;;;6.35;3.70;;;;;;;;;;143727;701;47018;-89
2021/08/17 15:03:27;;;;;;;8.88;3.97;;;;;;;;;;143726;707;46014;-89